Shaw AFB

About
Name: Shaw AFB
Identifier:  SSC/KSSC
Local Time:  21. Jul 08:39 EDT
Location
Flights per Day
0 flights
Distance: 766km (476mi)
Punctuality
50% (0 flights per day delayed)
Delay Average: 17 minutes
Current Weather
 26 C (Humidity: 83%)
  5kt (9km/h / 5mph) from 240°
  16km (10 mi.)
 
 METAR KSSC 211156Z AUTO 24005KT 10SM CLR 26/23 A3004 RMK AO2 SLP171 T02620226 10262 20245 52012 $

Current Flights

Departures
Number Departure To Airline
Arrivals
Number Arrival From Airline

Current Delays

Departures
N/A
Arrivals
N/A

Destinations

Top Destinations
Airport Flights
per week
Seats
per week
  Harrisburg (MDT) 1 - 0 0
  Las Vegas (LSV) 0 58 0 8
  Savannah (SAV) 0 - 0 0
  Pittsburgh (PIT) 0 29 0 4
  Norfolk (NGU) 0 70 0 10
  Seattle (SEA) 0 70 0 10

Airlines & Planes

Top Airlines
Airline Flights
per Day
Seats
per Day
  Sierra Pacific Airlines 0 12
  Omni Air International 0 20
  Novair 0 -
Top Plane Types
Model Flights Seats
Boeing B737-500 0.4/day 12/day 12.6
Boeing B767-300 0.1/day 20/day 20.266666666666666